createdAt,value
2022-11-02T00:00:35.129Z,22.08
2022-11-02T00:03:22.818Z,20.17
2022-11-02T00:05:50.013Z,21.50
2022-11-02T00:08:17.274Z,19.02
2022-11-02T00:10:44.684Z,14.80
2022-11-02T00:13:12.523Z,13.95
2022-11-02T00:15:39.642Z,16.30
2022-11-02T00:18:11.612Z,13.93
2022-11-02T00:20:40.266Z,16.75
2022-11-02T00:23:10.873Z,15.88
2022-11-02T00:25:44.263Z,17.58
2022-11-02T00:28:12.676Z,16.70
2022-11-02T00:30:39.820Z,17.02
2022-11-02T00:33:07.301Z,19.50
2022-11-02T00:35:36.523Z,17.58
2022-11-02T00:38:04.398Z,14.95
2022-11-02T00:40:32.860Z,52.10
2022-11-02T00:43:00.118Z,15.68
2022-11-02T00:45:27.099Z,38.17
2022-11-02T00:47:54.695Z,19.00
2022-11-02T00:50:21.728Z,21.30
2022-11-02T00:52:49.053Z,28.13
2022-11-02T00:55:18.143Z,17.08
2022-11-02T00:57:45.558Z,21.20
2022-11-02T01:00:12.966Z,15.30
2022-11-02T01:02:41.259Z,17.52
2022-11-02T01:05:10.237Z,18.08
2022-11-02T01:07:37.802Z,15.05
2022-11-02T01:10:07.361Z,15.73
2022-11-02T01:12:37.702Z,25.33
2022-11-02T01:15:07.130Z,14.82
2022-11-02T01:17:34.673Z,17.95
2022-11-02T01:20:02.094Z,18.60
2022-11-02T01:22:29.289Z,13.80
2022-11-02T01:24:56.259Z,15.65
2022-11-02T01:27:23.886Z,14.95
2022-11-02T01:29:57.216Z,19.95
2022-11-02T01:32:40.634Z,17.45
2022-11-02T01:35:08.294Z,12.52
2022-11-02T01:37:35.513Z,16.40
2022-11-02T01:40:02.797Z,18.67
2022-11-02T01:42:29.966Z,21.10
2022-11-02T01:44:57.386Z,17.33
2022-11-02T01:47:40.645Z,16.80
2022-11-02T01:50:22.324Z,16.42
2022-11-02T01:52:49.410Z,15.23
2022-11-02T01:55:29.508Z,17.55
2022-11-02T01:58:10.281Z,16.38
2022-11-02T02:00:38.879Z,14.20
2022-11-02T02:03:09.456Z,19.20
2022-11-02T02:05:49.557Z,14.07
2022-11-02T02:08:20.164Z,17.83
2022-11-02T02:10:47.462Z,18.08
2022-11-02T02:13:15.961Z,20.27
2022-11-02T02:16:15.811Z,18.35
2022-11-02T02:18:50.495Z,16.30
2022-11-02T02:21:51.346Z,15.90
2022-11-02T02:25:11.505Z,14.15
2022-11-02T02:27:57.228Z,16.05
2022-11-02T02:30:24.615Z,17.35
2022-11-02T02:33:05.940Z,15.05
2022-11-02T02:35:59.391Z,20.52
2022-11-02T02:38:30.824Z,15.93
2022-11-02T02:41:09.354Z,16.73
2022-11-02T02:44:00.726Z,23.63
2022-11-02T02:46:40.546Z,17.52
2022-11-02T02:49:13.500Z,20.70
2022-11-02T02:51:42.045Z,19.00
2022-11-02T02:54:15.188Z,17.27
2022-11-02T02:56:50.022Z,21.13
2022-11-02T02:59:34.144Z,19.60
2022-11-02T03:02:01.303Z,18.88
2022-11-02T03:04:29.958Z,21.58
2022-11-02T03:07:01.496Z,17.83
2022-11-02T03:09:42.063Z,17.00
2022-11-02T03:12:16.762Z,20.85
2022-11-02T03:14:58.441Z,16.50
2022-11-02T03:17:48.577Z,16.17
2022-11-02T03:20:48.562Z,16.63
2022-11-02T03:23:33.660Z,24.23
2022-11-02T03:26:04.464Z,21.55
2022-11-02T03:28:54.873Z,19.40
2022-11-02T03:31:28.510Z,17.40
2022-11-02T03:34:15.786Z,20.17
2022-11-02T03:39:49.769Z,18.20
2022-11-02T03:44:49.741Z,25.00
2022-11-02T03:47:20.877Z,22.15
2022-11-02T03:49:50.534Z,25.02
2022-11-02T03:52:23.792Z,31.02
2022-11-02T03:55:11.560Z,30.52
2022-11-02T03:57:46.329Z,34.85
2022-11-02T04:00:16.322Z,33.45
2022-11-02T04:02:48.567Z,33.53
2022-11-02T04:05:16.262Z,31.52
2022-11-02T04:08:07.513Z,32.45
2022-11-02T04:10:35.202Z,34.33
2022-11-02T04:13:21.070Z,30.05
2022-11-02T04:15:48.367Z,26.60
2022-11-02T04:18:34.495Z,26.77
2022-11-02T04:21:02.522Z,33.45
2022-11-02T04:23:48.631Z,33.33
2022-11-02T04:26:15.672Z,32.88
2022-11-02T04:28:42.964Z,29.90
2022-11-02T04:31:13.097Z,28.15
2022-11-02T04:33:41.497Z,29.75
2022-11-02T04:36:08.780Z,30.95
2022-11-02T04:38:42.095Z,29.38
2022-11-02T04:41:32.420Z,32.08
2022-11-02T04:44:00.527Z,31.50
2022-11-02T04:46:29.800Z,35.67
2022-11-02T04:48:57.380Z,35.78
2022-11-02T04:51:26.621Z,33.85
2022-11-02T04:53:55.354Z,33.53
2022-11-02T04:56:22.838Z,40.40
2022-11-02T04:59:01.816Z,34.35
2022-11-02T05:01:35.703Z,31.38
2022-11-02T05:04:04.720Z,34.97
2022-11-02T05:06:31.663Z,35.50
2022-11-02T05:08:58.900Z,30.67
2022-11-02T05:11:25.870Z,24.83
2022-11-02T05:16:46.314Z,29.75
2022-11-02T05:22:20.079Z,36.15
2022-11-02T05:24:47.292Z,38.55
2022-11-02T05:27:14.532Z,32.00
2022-11-02T05:29:42.063Z,38.85
2022-11-02T05:32:09.328Z,33.13
2022-11-02T05:34:38.198Z,40.97
2022-11-02T05:37:05.760Z,39.65
2022-11-02T05:39:33.068Z,42.10
2022-11-02T05:42:00.119Z,41.40
2022-11-02T05:44:27.369Z,34.92
2022-11-02T05:46:54.335Z,32.10
2022-11-02T05:49:21.926Z,38.03
2022-11-02T05:51:49.513Z,38.88
2022-11-02T05:54:18.105Z,34.83
2022-11-02T05:56:45.824Z,46.22
2022-11-02T06:04:44.669Z,38.45
2022-11-02T06:07:11.955Z,45.47
2022-11-02T06:09:39.382Z,56.90
2022-11-02T06:14:51.893Z,52.70
2022-11-02T06:17:20.009Z,52.42
2022-11-02T06:19:48.202Z,50.25
2022-11-02T06:22:15.256Z,56.75
2022-11-02T06:24:42.513Z,55.38
2022-11-02T06:27:09.541Z,47.20
2022-11-02T06:29:36.799Z,40.00
2022-11-02T06:32:03.912Z,37.33
2022-11-02T06:34:31.185Z,48.05
2022-11-02T06:40:25.631Z,34.03
2022-11-02T06:43:15.281Z,31.33
2022-11-02T06:45:43.815Z,29.83
2022-11-02T06:48:13.735Z,31.70
2022-11-02T06:50:43.728Z,36.33
2022-11-02T06:55:55.611Z,27.17
2022-11-02T06:58:24.216Z,28.33
2022-11-02T07:00:56.561Z,24.55
2022-11-02T07:03:47.670Z,28.85
2022-11-02T07:06:25.631Z,28.15
2022-11-02T07:08:53.811Z,26.92
2022-11-02T07:13:51.895Z,25.73
2022-11-02T07:16:21.563Z,26.58
2022-11-02T07:21:33.401Z,25.52
2022-11-02T07:24:00.829Z,27.15
2022-11-02T07:26:34.448Z,23.27
2022-11-02T07:29:01.431Z,19.42
2022-11-02T07:31:28.712Z,26.33
2022-11-02T07:33:55.744Z,29.38
2022-11-02T07:36:23.197Z,24.92
2022-11-02T07:38:50.130Z,24.65
2022-11-02T07:41:17.344Z,32.30
2022-11-02T07:43:44.465Z,25.55
2022-11-02T07:46:12.652Z,25.40
2022-11-02T07:48:39.878Z,30.77
2022-11-02T07:53:55.593Z,24.55
2022-11-02T07:56:22.907Z,26.13
2022-11-02T07:58:49.842Z,23.27
2022-11-02T08:01:17.070Z,24.63
2022-11-02T08:03:44.146Z,32.08
2022-11-02T08:06:11.360Z,27.63
2022-11-02T08:08:38.296Z,29.27
2022-11-02T08:11:09.313Z,31.63
2022-11-02T08:13:42.196Z,27.10
2022-11-02T08:16:09.719Z,28.85
2022-11-02T08:21:40.795Z,24.63
2022-11-02T08:24:08.214Z,24.30
2022-11-02T08:26:35.221Z,28.52
2022-11-02T08:29:03.268Z,23.50
2022-11-02T08:31:30.248Z,24.92
2022-11-02T08:33:58.855Z,26.13
2022-11-02T08:36:25.871Z,20.33
2022-11-02T08:38:53.182Z,20.33
2022-11-02T08:41:21.533Z,24.17
2022-11-02T08:43:49.507Z,24.00
2022-11-02T08:46:47.717Z,35.25
2022-11-02T08:49:18.662Z,19.92
2022-11-02T08:51:45.975Z,22.60
2022-11-02T08:54:13.950Z,25.05
2022-11-02T08:56:41.131Z,22.70
2022-11-02T08:59:08.943Z,22.20
2022-11-02T09:01:35.957Z,27.00
2022-11-02T09:04:06.004Z,21.52
2022-11-02T09:06:32.999Z,24.70
2022-11-02T09:09:00.426Z,27.27
2022-11-02T09:11:27.574Z,22.40
2022-11-02T09:13:57.116Z,32.38
2022-11-02T09:16:24.393Z,23.05
2022-11-02T09:18:52.547Z,22.73
2022-11-02T09:21:19.487Z,21.88
2022-11-02T09:23:48.641Z,19.85
2022-11-02T09:26:16.085Z,18.38
2022-11-02T09:28:43.562Z,19.83
2022-11-02T09:31:11.772Z,20.85
2022-11-02T09:33:39.594Z,21.40
2022-11-02T09:36:07.298Z,17.58
2022-11-02T09:38:34.692Z,20.90
2022-11-02T09:41:22.000Z,18.02
2022-11-02T09:43:58.216Z,24.50
2022-11-02T09:46:32.705Z,20.33
2022-11-02T09:49:00.260Z,21.00
2022-11-02T09:51:35.239Z,18.23
2022-11-02T09:54:17.153Z,23.40
2022-11-02T09:56:46.362Z,22.63
2022-11-02T09:59:24.634Z,17.00
2022-11-02T10:02:05.779Z,21.15
2022-11-02T10:05:10.741Z,18.38
2022-11-02T10:07:43.686Z,20.35
2022-11-02T10:10:10.979Z,23.85
2022-11-02T10:12:58.084Z,23.73
2022-11-02T10:15:37.210Z,20.92
2022-11-02T10:18:05.708Z,21.25
2022-11-02T10:20:42.582Z,17.05
2022-11-02T10:23:18.587Z,18.95
2022-11-02T10:25:48.489Z,19.38
2022-11-02T10:28:27.421Z,23.40
2022-11-02T10:30:55.680Z,20.30
2022-11-02T10:33:26.984Z,23.88
2022-11-02T10:36:28.186Z,22.77
2022-11-02T10:41:39.147Z,15.77
2022-11-02T10:44:22.303Z,19.15
2022-11-02T10:47:05.615Z,20.55
2022-11-02T10:50:12.562Z,22.60
2022-11-02T10:52:43.646Z,18.63
2022-11-02T10:55:41.433Z,19.88
2022-11-02T10:58:15.957Z,21.33
2022-11-02T11:00:43.371Z,19.67
2022-11-02T11:03:13.409Z,20.80
2022-11-02T11:06:02.824Z,18.25
2022-11-02T11:08:43.022Z,15.48
2022-11-02T11:11:21.518Z,24.38
2022-11-02T11:16:52.410Z,19.83
2022-11-02T11:22:22.553Z,17.65
2022-11-02T11:24:49.967Z,15.88
2022-11-02T11:27:23.997Z,16.08
2022-11-02T11:29:59.100Z,18.33
2022-11-02T11:32:30.562Z,17.55
2022-11-02T11:35:14.868Z,18.38
2022-11-02T11:37:54.813Z,20.40
2022-11-02T11:40:23.409Z,21.20
2022-11-02T11:42:56.363Z,17.05
2022-11-02T11:45:27.962Z,20.75
2022-11-02T11:48:32.567Z,16.05
2022-11-02T11:51:02.609Z,19.70
2022-11-02T11:53:30.008Z,21.23
2022-11-02T11:55:59.950Z,22.52
2022-11-02T11:58:30.088Z,18.23
2022-11-02T12:01:13.023Z,22.88
2022-11-02T12:03:53.912Z,19.27
2022-11-02T12:06:59.814Z,22.30
2022-11-02T12:09:45.781Z,23.98
2022-11-02T12:12:34.575Z,24.10
2022-11-02T12:15:23.110Z,22.70
2022-11-02T12:18:06.823Z,24.13
2022-11-02T12:21:22.292Z,27.58
2022-11-02T12:24:18.973Z,24.77
2022-11-02T12:27:41.852Z,19.45
2022-11-02T12:30:11.304Z,18.60
2022-11-02T12:32:53.539Z,20.80
2022-11-02T12:35:55.991Z,21.27
2022-11-02T12:39:04.493Z,21.95
2022-11-02T12:41:51.272Z,20.67
2022-11-02T12:47:59.774Z,20.88
2022-11-02T13:04:54.756Z,23.23
2022-11-02T13:08:27.250Z,18.58
2022-11-02T13:11:46.183Z,29.60
2022-11-02T13:15:16.270Z,22.88
2022-11-02T13:18:53.077Z,26.77
2022-11-02T13:22:15.879Z,24.30
2022-11-02T13:25:03.660Z,19.65
2022-11-02T13:28:20.307Z,33.60
2022-11-02T13:31:00.737Z,27.02
2022-11-02T13:34:12.247Z,29.80
2022-11-02T13:36:46.795Z,22.80
2022-11-02T13:39:30.309Z,26.98
2022-11-02T13:42:33.760Z,28.70
2022-11-02T13:45:30.797Z,26.38
2022-11-02T13:48:23.073Z,26.05
2022-11-02T13:50:55.646Z,24.67
2022-11-02T13:53:48.460Z,27.52
2022-11-02T13:56:24.447Z,29.00
2022-11-02T13:59:20.931Z,26.17
2022-11-02T14:01:53.846Z,26.60
2022-11-02T14:04:22.666Z,24.45
2022-11-02T14:06:53.589Z,23.95
2022-11-02T14:09:42.456Z,29.98
2022-11-02T14:12:21.983Z,27.83
2022-11-02T14:15:15.532Z,26.80
2022-11-02T14:17:55.311Z,25.92
2022-11-02T14:20:47.681Z,28.02
2022-11-02T14:23:14.952Z,20.40
2022-11-02T14:28:44.456Z,20.52
2022-11-02T14:31:18.294Z,31.75
2022-11-02T14:34:12.027Z,22.73
2022-11-02T14:36:47.513Z,29.02
2022-11-02T14:39:35.211Z,26.67
2022-11-02T14:42:36.870Z,30.90
2022-11-02T14:45:48.882Z,32.38
2022-11-02T14:48:16.969Z,32.90
2022-11-02T14:51:06.955Z,33.97
2022-11-02T14:56:03.720Z,26.95
2022-11-02T14:58:48.497Z,30.88
2022-11-02T15:01:16.986Z,31.40
2022-11-02T15:03:45.234Z,30.90
2022-11-02T15:06:12.843Z,28.77
2022-11-02T15:09:08.104Z,29.10
2022-11-02T15:11:57.031Z,25.02
2022-11-02T15:14:38.384Z,33.00
2022-11-02T15:17:22.207Z,32.97
2022-11-02T15:20:16.535Z,32.30
2022-11-02T15:23:31.594Z,33.42
2022-11-02T15:25:59.551Z,35.13
2022-11-02T15:28:33.902Z,37.33
2022-11-02T15:31:23.155Z,41.05
2022-11-02T15:33:59.071Z,31.60
2022-11-02T15:36:36.724Z,32.20
2022-11-02T15:39:08.823Z,35.92
2022-11-02T15:41:42.035Z,33.05
2022-11-02T15:44:33.161Z,27.83
2022-11-02T15:47:14.699Z,33.88
2022-11-02T15:50:16.787Z,32.83
2022-11-02T15:53:22.438Z,35.58
2022-11-02T15:56:09.920Z,35.28
2022-11-02T15:58:45.900Z,34.53
2022-11-02T16:01:26.935Z,33.38
2022-11-02T16:06:44.456Z,36.28
2022-11-02T16:12:17.118Z,32.28
2022-11-02T16:14:44.908Z,37.85
2022-11-02T16:17:30.495Z,36.45
2022-11-02T16:23:29.334Z,40.92
2022-11-02T16:26:00.655Z,35.85
2022-11-02T16:28:30.414Z,36.83
2022-11-02T16:30:58.374Z,36.13
2022-11-02T16:33:27.040Z,31.23
2022-11-02T16:35:55.157Z,31.88
2022-11-02T16:38:23.306Z,37.08
2022-11-02T16:43:37.863Z,39.17
2022-11-02T16:46:07.190Z,39.75
2022-11-02T16:48:34.330Z,41.47
2022-11-02T16:51:26.933Z,38.40
2022-11-02T16:53:55.347Z,27.60
2022-11-02T16:56:35.822Z,33.08
2022-11-02T16:59:06.904Z,39.15
2022-11-02T17:02:02.269Z,38.40
2022-11-02T17:04:32.668Z,39.15
2022-11-02T17:07:28.464Z,34.58
2022-11-02T17:09:57.662Z,39.63
2022-11-02T17:12:37.263Z,39.58
2022-11-02T17:15:16.361Z,41.95
2022-11-02T17:17:44.112Z,35.90
2022-11-02T17:20:11.743Z,42.15
2022-11-02T17:22:50.871Z,41.85
2022-11-02T17:25:26.915Z,35.90
2022-11-02T17:27:56.601Z,37.85
2022-11-02T17:30:43.068Z,41.05
2022-11-02T17:33:25.153Z,40.75
2022-11-02T17:36:00.076Z,46.00
2022-11-02T17:38:38.174Z,38.92
2022-11-02T17:41:26.210Z,39.22
2022-11-02T17:43:58.672Z,35.63
2022-11-02T17:46:25.737Z,37.25
2022-11-02T17:48:55.710Z,42.47
2022-11-02T17:51:24.736Z,34.28
2022-11-02T17:53:52.868Z,39.78
2022-11-02T17:59:03.610Z,38.50
2022-11-02T18:01:30.919Z,37.70
2022-11-02T18:03:58.534Z,36.78
2022-11-02T18:06:25.665Z,42.17
2022-11-02T18:09:11.501Z,32.80
2022-11-02T18:11:38.547Z,37.80
2022-11-02T18:14:06.053Z,40.33
2022-11-02T18:16:33.073Z,36.15
2022-11-02T18:19:00.646Z,43.03
2022-11-02T18:21:27.955Z,31.42
2022-11-02T18:23:55.806Z,29.40
2022-11-02T18:26:24.709Z,32.10
2022-11-02T18:28:52.058Z,40.85
2022-11-02T18:31:19.306Z,34.92
2022-11-02T18:33:47.661Z,34.55
2022-11-02T18:36:14.826Z,39.20
2022-11-02T18:38:44.607Z,32.60
2022-11-02T18:41:30.738Z,31.17
2022-11-02T18:44:04.938Z,39.58
2022-11-02T18:46:34.346Z,34.00
2022-11-02T18:49:16.191Z,30.95
2022-11-02T18:55:02.769Z,31.70
2022-11-02T18:57:33.271Z,30.48
2022-11-02T19:00:02.728Z,30.02
2022-11-02T19:02:30.805Z,32.22
2022-11-02T19:04:57.951Z,32.38
2022-11-02T19:07:43.971Z,22.25
2022-11-02T19:10:11.069Z,30.23
2022-11-02T19:12:38.717Z,33.63
2022-11-02T19:15:06.498Z,35.47
2022-11-02T19:17:48.430Z,32.92
2022-11-02T19:20:15.416Z,40.58
2022-11-02T19:25:24.798Z,32.83
2022-11-02T19:27:52.151Z,40.75
2022-11-02T19:30:23.708Z,36.60
2022-11-02T19:32:51.953Z,35.90
2022-11-02T19:35:19.085Z,40.50
2022-11-02T19:37:47.765Z,26.73
2022-11-02T19:40:15.271Z,33.22
2022-11-02T19:42:44.106Z,34.97
2022-11-02T19:45:17.489Z,40.03
2022-11-02T19:47:48.612Z,38.83
2022-11-02T19:50:20.929Z,41.22
2022-11-02T19:56:29.581Z,37.70
2022-11-02T19:59:06.405Z,30.30
2022-11-02T20:01:40.021Z,36.65
2022-11-02T20:04:09.039Z,37.05
2022-11-02T20:06:48.064Z,34.83
2022-11-02T20:09:20.502Z,39.65
2022-11-02T20:11:48.373Z,38.13
2022-11-02T20:14:17.733Z,37.25
2022-11-02T20:19:21.361Z,33.30
2022-11-02T20:21:48.725Z,36.05
2022-11-02T20:24:16.598Z,41.15
2022-11-02T20:26:43.760Z,35.80
2022-11-02T20:29:15.238Z,33.03
2022-11-02T20:31:45.724Z,34.83
2022-11-02T20:34:13.754Z,40.97
2022-11-02T20:36:41.450Z,37.10
2022-11-02T20:39:11.029Z,37.20
2022-11-02T20:41:38.054Z,37.28
2022-11-02T20:44:05.601Z,41.47
2022-11-02T20:46:39.118Z,39.83
2022-11-02T20:49:21.088Z,43.28
2022-11-02T20:51:53.136Z,44.65
2022-11-02T20:54:25.127Z,37.20
2022-11-02T20:56:52.127Z,39.13
2022-11-02T20:59:19.715Z,41.25
2022-11-02T21:01:47.446Z,30.50
2022-11-02T21:04:32.199Z,48.15
2022-11-02T21:07:00.767Z,37.95
2022-11-02T21:09:27.913Z,40.83
2022-11-02T21:12:13.815Z,38.80
2022-11-02T21:14:40.833Z,38.13
2022-11-02T21:17:09.988Z,39.65
2022-11-02T21:19:37.540Z,34.65
2022-11-02T21:22:07.591Z,40.47
2022-11-02T21:24:34.599Z,39.83
2022-11-02T21:27:02.359Z,35.80
2022-11-02T21:29:32.358Z,36.33
2022-11-02T21:32:03.496Z,37.53
2022-11-02T21:34:33.149Z,39.83
2022-11-02T21:37:06.615Z,42.83
2022-11-02T21:39:36.165Z,40.97
2022-11-02T21:42:04.118Z,39.28
2022-11-02T21:44:33.090Z,39.97
2022-11-02T21:47:01.895Z,41.08
2022-11-02T21:49:31.286Z,40.40
2022-11-02T21:51:58.666Z,37.53
2022-11-02T21:54:25.692Z,37.90
2022-11-02T21:56:53.045Z,43.95
2022-11-02T21:59:20.144Z,40.85
2022-11-02T22:01:49.517Z,40.97
2022-11-02T22:04:31.686Z,38.38
2022-11-02T22:07:00.600Z,38.42
2022-11-02T22:09:30.661Z,38.85
2022-11-02T22:12:21.491Z,40.58
2022-11-02T22:14:48.598Z,36.33
2022-11-02T22:17:22.066Z,34.75
2022-11-02T22:20:04.314Z,31.73
2022-11-02T22:22:31.666Z,33.47
2022-11-02T22:24:58.979Z,33.45
2022-11-02T22:27:29.130Z,43.00
2022-11-02T22:29:56.231Z,38.35
2022-11-02T22:32:23.762Z,39.38
2022-11-02T22:34:51.134Z,36.20
2022-11-02T22:40:06.932Z,35.38
2022-11-02T22:42:38.188Z,36.92
2022-11-02T22:45:09.193Z,38.00
2022-11-02T22:47:36.717Z,34.17
2022-11-02T22:50:05.334Z,38.25
2022-11-02T22:52:33.309Z,34.65
2022-11-02T22:55:00.416Z,33.33
2022-11-02T22:57:29.269Z,34.15
2022-11-02T22:59:56.845Z,36.03
2022-11-02T23:02:24.223Z,36.58
2022-11-02T23:04:51.327Z,35.25
2022-11-02T23:07:18.613Z,38.67
2022-11-02T23:09:46.090Z,35.25
2022-11-02T23:12:14.460Z,37.15
2022-11-02T23:14:41.548Z,37.80
2022-11-02T23:17:08.662Z,39.65
2022-11-02T23:19:38.667Z,36.10
2022-11-02T23:22:26.583Z,42.22
2022-11-02T23:28:06.028Z,32.92
2022-11-02T23:30:57.570Z,35.17
2022-11-02T23:33:29.516Z,30.02
2022-11-02T23:36:13.122Z,32.00
2022-11-02T23:39:03.501Z,34.47
2022-11-02T23:41:32.899Z,35.28
2022-11-02T23:44:12.636Z,36.22
2022-11-02T23:46:44.347Z,38.58
2022-11-02T23:49:12.444Z,35.40
2022-11-02T23:52:01.368Z,33.60
2022-11-02T23:54:47.115Z,37.67
2022-11-02T23:57:14.574Z,36.88
2022-11-02T23:59:41.531Z,34.72
